Saint Louisville, Ohio
Current Conditions -  °F | °C
As of 2:54 PM on Friday 21 Nov 2014 (Local Time) from KVTA Reporting Station
Clear Clear  
Wind Chill: 19°   Ceiling: Unl
Heat Index: 27°   Visibility: 10mi
Dew Point: 10°   Wind: 8mph
Humidity: 49%   Direction: 170°S
Pressure: 30.49"   Gusts: NA
Location:  40.17°N, 82.42°W
Report Text: KVTA 211954Z AUTO 17007KT 10SM CLR M03/M12 A3049 RMK AO2 SLP336 T10281122
Loading
Personal Weather Stations






























Interactive Weather Map New forecast layout! Learn more

10-Day Weather Forecast

Advertisements
Track Severe Weather on mobile